To NAV CANADA Home Page Login to a new session Search on AWWS site Feedback and Comments Disclaimer Vers la page française équivalente Tips FAQ What's new on the site To the Forecasts and Observations / NOTAM section To "File a Flight Plan" website Publications and other links Update of the User's profile FIC Telephone Numbers My Weather Data Folder Route Weather Data Regional Weather Data Local Weather Data To the Forecasts and Observations / NOTAM section
Request Generated 06/27/2017 at 03:30:55 UTC . Weather information available at that time is displayed.

METAR/TAF

WINDSOR/ON    

METAR CYQG 270300Z 28005KT 12SM SCT070 BKN120 13/10 A2997 RMK CU3AC4
SLP150=
SPECI CYQG 270242Z 30007KT 290V350 12SM FEW060 SCT092 14/10 A2997 RMK
CU2AC1 SLP150 DENSITY ALT 700FT=
SPECI CYQG 270206Z 31014G24KT 12SM -SHRA BKN062 BKN110 17/07 A2997
RMK CU5AC2 PRESRR SLP149 DENSITY ALT 1000FT=
METAR CYQG 270200Z 33017G22KT 270V340 12SM BKN067 18/06 A2996 RMK CU7
SLP146 DENSITY ALT 1100FT=
METAR CYQG 270100Z 30009KT 10SM FEW060 18/06 A2994 RMK CU1 TCU EMBD
SHRA DIST N SLP141 DENSITY ALT 1100FT=

TAF CYQG 262341Z 2700/2724 28015G25KT P6SM FEW070 TEMPO 2700/2701
P6SM -SHRA BKN070
FM270100 28008KT P6SM FEW060
FM270600 28008KT P6SM SCT020
FM271200 30012KT P6SM FEW030
FM271500 30012KT P6SM SKC
FM271800 30010KT P6SM BKN050 PROB30 2718/2721 5SM +TSRA BR
BKN050CB
FM272100 28009KT P6SM BKN070
RMK NXT FCST BY 270600Z=

LONDON/ON    

METAR CYXU 270300Z VRB02KT 15SM FEW060 SCT090 13/11 A2995 RMK SC1AC2
SLP142=
METAR CYXU 270200Z 00000KT 15SM BKN064TCU BKN110 13/11 A2994 RMK
TCU5AC1 SLP141=
METAR CYXU 270100Z 28002KT 15SM FEW060TCU SCT260 15/10 A2994 RMK
TCU2CI1 CB TOPS SE SLP140 DENSITY ALT 1100FT=

TAF CYXU 262341Z 2700/2724 26007KT P6SM SCT040
FM270200 26010G20KT P6SM SCT100
FM270600 25005KT P6SM SCT060
FM271200 24011KT 5SM -SHRA BR BKN015 PROB30 2712/2715 VRB15G25KT
21/2SM +TSRA BR BKN008CB
FM271500 29011G21KT P6SM BKN015 BKN270
FM271800 31007G17KT P6SM SCT030
FM272100 31007G17KT P6SM FEW260
RMK NXT FCST BY 270600Z=

SARNIA (CHRIS HADFIELD)/ON    (show WxCam)

SPECI CYZR 270325Z AUTO 30005KT 9SM TS BKN070 BKN083 BKN100 OVC150
14/09 A2994 RMK LTNG DIST N NE SW SLP141=
METAR CYZR 270300Z AUTO 29011G20KT 9SM -TSRA BKN060 BKN078 OVC130
15/08 A2996 RMK LTNG DIST N NW SLP147 DENSITY ALT 700FT=
SPECI CYZR 270253Z AUTO 29011G17KT 9SM TS SCT060 BKN077 OVC140 16/07
A2996 RMK LTNG DIST NW SLP146 DENSITY ALT 700FT=
METAR CYZR 270200Z AUTO 26004KT 9SM CLR 16/07 A2994 RMK SLP140
DENSITY ALT 800FT=
METAR CYZR 270100Z AUTO 28006KT 9SM CLR 18/06 A2993 RMK SLP136
DENSITY ALT 1000FT=

*** REMARK        : Forecast period has ended; this was the last TAF issued
*** REMARQUE : La période de prévision est échue; ceci était le dernier TAF qui a été émis
TAF AMD CYZR 262218Z 2622/2702 26014G24KT P6SM BKN070 TEMPO 2622/2701
SCT100
FM270100 26010G20KT P6SM FEW060
RMK FCST BASED ON AUTO OBS. NXT FCST WILL BE ISSUED AT 270745Z=

KITCHENER/WATERLOO/ON    (show WxCam)

METAR CYKF 270300Z AUTO VRB02KT 9SM CLR 12/08 A2994 RMK SLP141=
METAR CYKF 270200Z AUTO 20006KT 9SM CLR 13/08 A2994 RMK SLP139=
METAR CYKF 270100Z AUTO 25005KT 9SM CLR 14/08 A2993 RMK SLP137
DENSITY ALT 1100FT=

TAF CYKF 270141Z 2702/2714 26005KT P6SM FEW060
FM270800 25008KT P6SM BKN030 TEMPO 2711/2714 P6SM -SHRA BKN015
RMK FCST BASED ON AUTO OBS. NXT FCST BY 270800Z=

HAMILTON/ON    

METAR CYHM 270300Z 20002KT 15SM BKN085 12/10 A2995 RMK AC5 SLP145=
METAR CYHM 270200Z 20004KT 15SM FEW040CB SCT140 12/10 A2995 RMK
CB1AC3 SLP145=
METAR CYHM 270100Z 19006KT 15SM FEW040CB FEW120 12/10 A2995 RMK
CB1AC1 CB TR CB DSNT NE SLP145=

TAF CYHM 262341Z 2700/2724 30008G18KT P6SM BKN050 TEMPO 2700/2701
P6SM -SHRA
FM270200 25008KT P6SM FEW050 SCT080
FM271200 25008KT P6SM FEW005
FM271400 27007G17KT P6SM -SHRA OVC020 PROB30 2714/2718 VRB15G25KT
2SM +TSRA BR BKN020CB
FM271800 30010G20KT P6SM BKN040 BKN270
RMK NXT FCST BY 270600Z=

TORONTO/LESTER B. PEARSON INTL/ON    

METAR CYYZ 270300Z 26007KT 15SM FEW100 13/09 A2993 RMK AC2 SLP136=
METAR CYYZ 270200Z 24003KT 15SM FEW060 SCT120 15/10 A2992 RMK CU1AC3
CU TR SLP132 DENSITY ALT 700FT=
METAR CYYZ 270100Z VRB02KT 15SM FEW060 BKN110 BKN250 15/11 A2992 RMK
CU2AC3CI1 SLP132 DENSITY ALT 700FT=

TAF CYYZ 270238Z 2703/2806 25005KT P6SM FEW060
FM271500 29015KT P6SM -SHRA BKN030 PROB30 2715/2718 VRB15G30KT
4SM TSRA BKN025CB
FM271800 31010G20KT P6SM -SHRA BKN050 PROB30 2718/2721 VRB15G25KT
21/2SM +TSRA BR BKN025CB
FM272100 30015G25KT P6SM FEW040
FM280000 29008G18KT P6SM SKC
BECMG 2801/2803 27007KT
RMK NXT FCST BY 270600Z=
Your time UTC time
Weather data provided by Environment Canada and NAV CANADA